createdAt,value
2023-01-18T00:00:37.642Z,19.00
2023-01-18T00:03:04.895Z,19.10
2023-01-18T00:05:31.492Z,19.10
2023-01-18T00:07:58.107Z,19.00
2023-01-18T00:10:24.726Z,19.10
2023-01-18T00:12:51.332Z,19.00
2023-01-18T00:15:17.960Z,19.00
2023-01-18T00:17:53.600Z,19.00
2023-01-18T00:20:22.265Z,19.10
2023-01-18T00:22:49.088Z,19.10
2023-01-18T00:25:15.941Z,19.00
2023-01-18T00:27:47.736Z,19.00
2023-01-18T00:30:14.790Z,19.10
2023-01-18T00:32:41.384Z,19.00
2023-01-18T00:35:08.202Z,19.00
2023-01-18T00:37:35.214Z,19.00
2023-01-18T00:40:01.836Z,19.00
2023-01-18T00:42:47.302Z,19.00
2023-01-18T00:45:14.043Z,19.00
2023-01-18T00:47:40.648Z,19.00
2023-01-18T00:50:07.661Z,19.00
2023-01-18T00:52:34.854Z,19.00
2023-01-18T00:55:05.108Z,19.00
2023-01-18T00:57:31.720Z,19.00
2023-01-18T00:59:58.303Z,19.00
2023-01-18T01:02:25.090Z,19.00
2023-01-18T01:05:10.610Z,19.00
2023-01-18T01:07:37.211Z,19.00
2023-01-18T01:10:09.093Z,19.00
2023-01-18T01:12:55.413Z,19.00
2023-01-18T01:15:40.840Z,19.00
2023-01-18T01:18:26.015Z,19.00
2023-01-18T01:21:11.242Z,19.00
2023-01-18T01:23:56.695Z,19.00
2023-01-18T01:26:23.321Z,19.00
2023-01-18T01:28:51.464Z,19.00
2023-01-18T01:31:18.218Z,19.00
2023-01-18T01:33:45.014Z,19.00
2023-01-18T01:36:13.180Z,19.00
2023-01-18T01:38:41.326Z,19.00
2023-01-18T01:41:09.614Z,19.00
2023-01-18T01:43:44.575Z,19.00
2023-01-18T01:46:19.401Z,19.00
2023-01-18T01:48:47.526Z,19.00
2023-01-18T01:51:16.110Z,19.00
2023-01-18T01:53:42.724Z,19.00
2023-01-18T01:56:09.474Z,19.00
2023-01-18T01:58:36.141Z,19.00
2023-01-18T02:01:02.820Z,19.00
2023-01-18T02:03:29.458Z,19.00
2023-01-18T02:06:02.372Z,19.00
2023-01-18T02:08:28.987Z,19.00
2023-01-18T02:10:55.603Z,19.00
2023-01-18T02:13:22.975Z,19.00
2023-01-18T02:15:57.236Z,19.00
2023-01-18T02:18:29.130Z,19.00
2023-01-18T02:21:16.719Z,19.00
2023-01-18T02:24:10.192Z,19.00
2023-01-18T02:27:02.734Z,19.00
2023-01-18T02:30:00.878Z,19.00
2023-01-18T02:32:45.961Z,19.00
2023-01-18T02:35:26.152Z,19.00
2023-01-18T02:38:05.981Z,19.00
2023-01-18T02:40:39.992Z,18.90
2023-01-18T02:43:26.301Z,19.00
2023-01-18T02:46:11.255Z,19.00
2023-01-18T02:48:39.733Z,19.00
2023-01-18T02:51:06.406Z,19.00
2023-01-18T02:53:35.489Z,19.00
2023-01-18T02:56:06.981Z,19.00
2023-01-18T02:58:34.367Z,19.00
2023-01-18T03:01:04.469Z,19.00
2023-01-18T03:03:31.202Z,19.00
2023-01-18T03:06:00.095Z,18.90
2023-01-18T03:08:38.672Z,19.00
2023-01-18T03:11:12.251Z,19.00
2023-01-18T03:13:59.341Z,18.90
2023-01-18T03:16:27.830Z,19.00
2023-01-18T03:19:02.210Z,19.00
2023-01-18T03:21:43.292Z,18.90
2023-01-18T03:24:10.263Z,19.00
2023-01-18T03:26:40.491Z,18.90
2023-01-18T03:29:25.800Z,18.90
2023-01-18T03:32:34.046Z,18.90
2023-01-18T03:35:11.846Z,18.90
2023-01-18T03:37:42.578Z,18.90
2023-01-18T03:40:11.166Z,18.90
2023-01-18T03:42:42.784Z,18.90
2023-01-18T03:45:20.470Z,18.90
2023-01-18T03:47:50.233Z,18.90
2023-01-18T03:50:17.553Z,18.90
2023-01-18T03:52:46.590Z,18.90
2023-01-18T03:55:27.843Z,18.90
2023-01-18T03:57:55.885Z,18.90
2023-01-18T04:00:22.542Z,18.90
2023-01-18T04:02:49.564Z,18.90
2023-01-18T04:05:16.336Z,18.90
2023-01-18T04:07:43.049Z,18.90
2023-01-18T04:10:10.722Z,18.90
2023-01-18T04:12:37.329Z,18.90
2023-01-18T04:15:04.359Z,18.90
2023-01-18T04:17:30.959Z,18.90
2023-01-18T04:19:57.586Z,18.90
2023-01-18T04:22:24.208Z,18.90
2023-01-18T04:24:50.810Z,18.90
2023-01-18T04:27:17.407Z,18.90
2023-01-18T04:29:44.019Z,18.90
2023-01-18T04:32:10.592Z,18.90
2023-01-18T04:34:37.209Z,18.90
2023-01-18T04:37:03.806Z,18.90
2023-01-18T04:39:30.408Z,18.90
2023-01-18T04:41:57.342Z,18.90
2023-01-18T04:44:24.040Z,18.90
2023-01-18T04:46:51.071Z,18.90
2023-01-18T04:49:17.727Z,18.90
2023-01-18T04:51:44.956Z,18.90
2023-01-18T04:54:11.965Z,18.90
2023-01-18T04:56:38.602Z,18.90
2023-01-18T04:59:05.211Z,18.90
2023-01-18T05:01:32.507Z,18.90
2023-01-18T05:03:59.304Z,18.90
2023-01-18T05:06:25.930Z,18.90
2023-01-18T05:08:52.514Z,18.90
2023-01-18T05:11:20.377Z,18.90
2023-01-18T05:13:47.258Z,18.90
2023-01-18T05:16:19.754Z,18.80
2023-01-18T05:18:46.440Z,18.90
2023-01-18T05:21:13.371Z,18.80
2023-01-18T05:23:40.358Z,18.90
2023-01-18T05:26:14.293Z,18.90
2023-01-18T05:28:41.583Z,18.90
2023-01-18T05:31:08.357Z,18.90
2023-01-18T05:33:34.951Z,18.90
2023-01-18T05:36:01.554Z,18.90
2023-01-18T05:38:28.166Z,18.90
2023-01-18T05:40:55.033Z,18.90
2023-01-18T05:43:22.422Z,18.90
2023-01-18T05:45:49.145Z,18.90
2023-01-18T05:48:15.888Z,18.90
2023-01-18T05:50:46.064Z,18.90
2023-01-18T05:53:13.838Z,18.90
2023-01-18T05:55:40.511Z,18.90
2023-01-18T05:58:07.102Z,18.90
2023-01-18T06:00:34.293Z,18.90
2023-01-18T06:03:01.986Z,18.80
2023-01-18T06:05:28.704Z,18.90
2023-01-18T06:07:55.380Z,18.80
2023-01-18T06:10:21.999Z,18.90
2023-01-18T06:12:48.624Z,18.90
2023-01-18T06:15:15.605Z,18.90
2023-01-18T06:17:42.708Z,18.80
2023-01-18T06:20:12.398Z,18.80
2023-01-18T06:22:39.111Z,18.90
2023-01-18T06:25:06.626Z,18.80
2023-01-18T06:27:33.227Z,18.80
2023-01-18T06:29:59.828Z,18.80
2023-01-18T06:32:26.439Z,18.90
2023-01-18T06:34:53.021Z,18.90
2023-01-18T06:37:19.614Z,18.80
2023-01-18T06:39:46.197Z,18.90
2023-01-18T06:42:12.808Z,18.90
2023-01-18T06:44:39.391Z,18.90
2023-01-18T06:47:06.035Z,18.90
2023-01-18T06:49:32.624Z,18.80
2023-01-18T06:51:59.211Z,18.80
2023-01-18T06:54:25.796Z,18.90
2023-01-18T06:56:52.376Z,18.80
2023-01-18T06:59:18.953Z,18.80
2023-01-18T07:01:46.007Z,18.80
2023-01-18T07:04:12.759Z,18.80
2023-01-18T07:06:39.386Z,18.80
2023-01-18T07:09:08.028Z,18.80
2023-01-18T07:11:36.813Z,18.80
2023-01-18T07:14:03.408Z,18.80
2023-01-18T07:16:30.456Z,18.80
2023-01-18T07:18:59.799Z,18.80
2023-01-18T07:21:29.600Z,18.80
2023-01-18T07:23:57.354Z,18.80
2023-01-18T07:26:24.091Z,18.80
2023-01-18T07:28:50.737Z,18.80
2023-01-18T07:31:17.910Z,18.80
2023-01-18T07:33:44.566Z,18.80
2023-01-18T07:36:11.316Z,18.80
2023-01-18T07:38:38.386Z,18.80
2023-01-18T07:41:10.185Z,18.80
2023-01-18T07:43:39.843Z,18.80
2023-01-18T07:46:07.520Z,18.80
2023-01-18T07:48:34.156Z,18.80
2023-01-18T07:51:02.361Z,18.80
2023-01-18T07:53:29.226Z,18.80
2023-01-18T07:55:59.365Z,18.80
2023-01-18T07:58:25.965Z,18.80
2023-01-18T08:00:52.818Z,18.80
2023-01-18T08:03:19.507Z,18.80
2023-01-18T08:05:46.222Z,18.80
2023-01-18T08:08:14.445Z,18.80
2023-01-18T08:10:41.102Z,18.80
2023-01-18T08:13:10.601Z,18.80
2023-01-18T08:15:37.996Z,18.80
2023-01-18T08:18:05.022Z,18.80
2023-01-18T08:20:31.676Z,18.80
2023-01-18T08:22:59.126Z,18.80
2023-01-18T08:25:29.755Z,18.80
2023-01-18T08:27:59.987Z,18.80
2023-01-18T08:30:28.151Z,18.80
2023-01-18T08:32:56.579Z,18.80
2023-01-18T08:35:24.497Z,18.80
2023-01-18T08:37:52.348Z,18.80
2023-01-18T08:40:19.703Z,18.80
2023-01-18T08:42:46.768Z,18.80
2023-01-18T08:45:13.985Z,18.80
2023-01-18T08:47:40.942Z,18.80
2023-01-18T08:50:09.040Z,18.80
2023-01-18T08:52:35.678Z,18.80
2023-01-18T08:55:05.607Z,18.80
2023-01-18T08:57:32.477Z,18.80
2023-01-18T08:59:59.065Z,18.80
2023-01-18T09:02:25.814Z,18.80
2023-01-18T09:04:53.432Z,18.80
2023-01-18T09:07:20.686Z,18.80
2023-01-18T09:09:47.291Z,18.80
2023-01-18T09:12:13.895Z,18.80
2023-01-18T09:14:40.890Z,18.80
2023-01-18T09:17:07.553Z,18.80
2023-01-18T09:19:34.150Z,18.80
2023-01-18T09:22:00.764Z,18.80
2023-01-18T09:24:27.374Z,18.70
2023-01-18T09:26:54.001Z,18.80
2023-01-18T09:29:20.618Z,18.80
2023-01-18T09:31:49.104Z,18.80
2023-01-18T09:34:19.589Z,18.80
2023-01-18T09:36:51.160Z,18.70
2023-01-18T09:39:19.097Z,18.70
2023-01-18T09:41:50.224Z,18.70
2023-01-18T09:44:30.030Z,18.70
2023-01-18T09:46:58.823Z,18.70
2023-01-18T09:49:56.358Z,18.80
2023-01-18T09:52:47.199Z,18.80
2023-01-18T09:55:33.108Z,18.70
2023-01-18T09:58:27.413Z,18.80
2023-01-18T10:00:54.557Z,18.80
2023-01-18T10:03:32.808Z,18.80
2023-01-18T10:06:08.931Z,18.70
2023-01-18T10:08:58.516Z,18.80
2023-01-18T10:11:31.733Z,18.80
2023-01-18T10:14:11.404Z,18.80
2023-01-18T10:16:38.173Z,18.80
2023-01-18T10:19:11.141Z,18.70
2023-01-18T10:21:54.617Z,18.80
2023-01-18T10:24:42.516Z,18.80
2023-01-18T10:27:31.835Z,18.80
2023-01-18T10:30:16.664Z,18.80
2023-01-18T10:32:47.372Z,18.80
2023-01-18T10:35:34.291Z,18.80
2023-01-18T10:38:03.413Z,18.80
2023-01-18T10:40:30.037Z,18.80
2023-01-18T10:42:59.630Z,18.80
2023-01-18T10:45:32.159Z,18.80
2023-01-18T10:48:05.959Z,18.80
2023-01-18T10:50:36.485Z,18.80
2023-01-18T10:53:37.756Z,18.80
2023-01-18T10:56:04.352Z,18.80
2023-01-18T10:58:52.254Z,18.80
2023-01-18T11:01:29.976Z,18.80
2023-01-18T11:04:19.201Z,18.80
2023-01-18T11:06:54.508Z,18.80
2023-01-18T11:09:43.120Z,18.80
2023-01-18T11:12:34.039Z,18.80
2023-01-18T11:15:15.757Z,18.80
2023-01-18T11:17:57.859Z,18.80
2023-01-18T11:20:29.946Z,18.80
2023-01-18T11:23:00.879Z,18.80
2023-01-18T11:25:35.186Z,18.80
2023-01-18T11:28:02.352Z,18.90
2023-01-18T11:30:29.016Z,18.90
2023-01-18T11:32:55.699Z,18.90
2023-01-18T11:35:36.232Z,18.90
2023-01-18T11:38:04.018Z,18.90
2023-01-18T11:40:34.810Z,18.90
2023-01-18T11:43:05.803Z,18.90
2023-01-18T11:45:35.956Z,18.90
2023-01-18T11:48:10.823Z,18.90
2023-01-18T11:50:46.814Z,18.90
2023-01-18T11:53:19.544Z,18.90
2023-01-18T11:55:56.291Z,18.90
2023-01-18T11:58:28.746Z,18.90
2023-01-18T12:01:03.060Z,18.90
2023-01-18T12:03:56.914Z,18.90
2023-01-18T12:06:46.065Z,18.90
2023-01-18T12:09:34.222Z,18.90
2023-01-18T12:12:22.540Z,18.90
2023-01-18T12:15:21.073Z,19.00
2023-01-18T12:18:12.387Z,19.00
2023-01-18T12:21:12.109Z,19.00
2023-01-18T12:23:50.983Z,19.00
2023-01-18T12:26:42.730Z,19.00
2023-01-18T12:29:43.096Z,19.00
2023-01-18T12:32:37.662Z,19.00
2023-01-18T12:35:24.086Z,19.00
2023-01-18T12:38:00.887Z,19.10
2023-01-18T12:40:43.012Z,19.10
2023-01-18T12:43:38.292Z,19.10
2023-01-18T12:46:10.788Z,19.10
2023-01-18T12:48:55.014Z,19.10
2023-01-18T12:51:23.786Z,19.10
2023-01-18T12:53:58.714Z,19.10
2023-01-18T12:56:41.359Z,19.10
2023-01-18T12:59:18.222Z,19.20
2023-01-18T13:01:48.633Z,19.20
2023-01-18T13:04:27.569Z,19.20
2023-01-18T13:06:57.229Z,19.20
2023-01-18T13:09:26.583Z,19.20
2023-01-18T13:11:53.165Z,19.20
2023-01-18T13:14:33.320Z,19.20
2023-01-18T13:17:11.385Z,19.30
2023-01-18T13:20:00.330Z,19.30
2023-01-18T13:22:34.831Z,19.30
2023-01-18T13:25:35.715Z,19.30
2023-01-18T13:28:04.049Z,19.30
2023-01-18T13:30:42.545Z,19.30
2023-01-18T13:33:12.995Z,19.30
2023-01-18T13:35:39.595Z,19.30
2023-01-18T13:38:13.077Z,19.30
2023-01-18T13:40:53.032Z,19.30
2023-01-18T13:43:31.626Z,19.30
2023-01-18T13:46:07.374Z,19.40
2023-01-18T13:48:43.380Z,19.40
2023-01-18T13:51:09.964Z,19.40
2023-01-18T13:53:49.534Z,19.40
2023-01-18T13:57:11.505Z,19.40
2023-01-18T13:59:45.141Z,19.40
2023-01-18T14:02:26.932Z,19.40
2023-01-18T14:05:16.325Z,19.40
2023-01-18T14:07:44.864Z,19.40
2023-01-18T14:10:30.247Z,19.40
2023-01-18T14:12:57.508Z,19.40
2023-01-18T14:15:47.528Z,19.40
2023-01-18T14:18:27.206Z,19.40
2023-01-18T14:21:10.668Z,19.50
2023-01-18T14:24:00.064Z,19.50
2023-01-18T14:26:28.813Z,19.40
2023-01-18T14:29:07.269Z,19.40
2023-01-18T14:31:35.874Z,19.40
2023-01-18T14:34:25.298Z,19.40
2023-01-18T14:36:51.889Z,19.50
2023-01-18T14:39:18.497Z,19.40
2023-01-18T14:41:46.074Z,19.50
2023-01-18T14:44:20.770Z,19.40
2023-01-18T14:46:51.903Z,19.40
2023-01-18T14:49:30.997Z,19.40
2023-01-18T14:51:57.606Z,19.40
2023-01-18T14:54:24.834Z,19.30
2023-01-18T14:56:51.517Z,19.30
2023-01-18T14:59:23.012Z,19.30
2023-01-18T15:02:16.849Z,19.30
2023-01-18T15:04:45.586Z,19.30
2023-01-18T15:07:19.322Z,19.30
2023-01-18T15:09:45.931Z,19.30
2023-01-18T15:12:15.548Z,19.30
2023-01-18T15:14:43.847Z,19.30
2023-01-18T15:17:11.942Z,19.30
2023-01-18T15:19:40.452Z,19.30
2023-01-18T15:22:08.503Z,19.40
2023-01-18T15:24:38.572Z,19.40
2023-01-18T15:27:05.354Z,19.30
2023-01-18T15:29:34.224Z,19.30
2023-01-18T15:32:10.173Z,19.30
2023-01-18T15:34:37.312Z,19.30
2023-01-18T15:37:09.992Z,19.30
2023-01-18T15:39:36.880Z,19.30
2023-01-18T15:42:07.976Z,19.30
2023-01-18T15:44:40.113Z,19.30
2023-01-18T15:47:23.627Z,19.30
2023-01-18T15:49:51.759Z,19.30
2023-01-18T15:52:47.786Z,19.30
2023-01-18T15:55:32.654Z,19.30
2023-01-18T15:58:04.255Z,19.30
2023-01-18T16:00:40.999Z,19.30
2023-01-18T16:03:18.577Z,19.30
2023-01-18T16:05:56.812Z,19.30
2023-01-18T16:08:23.928Z,19.30
2023-01-18T16:10:52.834Z,19.30
2023-01-18T16:13:33.329Z,19.30
2023-01-18T16:16:15.635Z,19.30
2023-01-18T16:18:47.967Z,19.30
2023-01-18T16:21:20.719Z,19.30
2023-01-18T16:23:49.044Z,19.20
2023-01-18T16:26:15.695Z,19.30
2023-01-18T16:28:42.294Z,19.20
2023-01-18T16:31:08.934Z,19.20
2023-01-18T16:33:35.553Z,19.20
2023-01-18T16:36:14.262Z,19.20
2023-01-18T16:38:40.899Z,19.20
2023-01-18T16:41:08.121Z,19.20
2023-01-18T16:43:35.047Z,19.20
2023-01-18T16:46:02.857Z,19.20
2023-01-18T16:48:30.616Z,19.20
2023-01-18T16:51:01.589Z,19.20
2023-01-18T16:53:28.633Z,19.20
2023-01-18T16:55:56.557Z,19.20
2023-01-18T16:58:23.986Z,19.20
2023-01-18T17:00:58.872Z,19.20
2023-01-18T17:03:25.608Z,19.20
2023-01-18T17:05:52.218Z,19.20
2023-01-18T17:08:18.823Z,19.20
2023-01-18T17:10:47.426Z,19.20
2023-01-18T17:13:14.063Z,19.10
2023-01-18T17:15:45.235Z,19.20
2023-01-18T17:18:20.771Z,19.10
2023-01-18T17:20:47.398Z,19.20
2023-01-18T17:23:14.264Z,19.20
2023-01-18T17:25:41.236Z,19.10
2023-01-18T17:28:08.557Z,19.10
2023-01-18T17:30:35.182Z,19.20
2023-01-18T17:33:02.218Z,19.10
2023-01-18T17:35:29.015Z,19.10
2023-01-18T17:38:05.756Z,19.10
2023-01-18T17:40:41.747Z,19.10
2023-01-18T17:43:28.561Z,19.10
2023-01-18T17:46:01.989Z,19.20
2023-01-18T17:48:28.876Z,19.10
2023-01-18T17:50:55.469Z,19.10
2023-01-18T17:53:22.070Z,19.10
2023-01-18T17:55:48.679Z,19.10
2023-01-18T17:58:15.280Z,19.10
2023-01-18T18:00:41.922Z,19.10
2023-01-18T18:03:09.304Z,19.10
2023-01-18T18:05:36.085Z,19.10
2023-01-18T18:08:02.744Z,19.10
2023-01-18T18:10:29.408Z,19.10
2023-01-18T18:12:56.230Z,19.10
2023-01-18T18:15:23.452Z,19.10
2023-01-18T18:17:50.059Z,19.10
2023-01-18T18:20:16.946Z,19.10
2023-01-18T18:22:43.648Z,19.10
2023-01-18T18:25:10.266Z,19.00
2023-01-18T18:27:45.315Z,19.00
2023-01-18T18:30:12.874Z,19.00
2023-01-18T18:32:39.492Z,19.00
2023-01-18T18:35:14.739Z,19.00
2023-01-18T18:37:46.909Z,19.00
2023-01-18T18:40:13.678Z,19.00
2023-01-18T18:42:41.869Z,19.00
2023-01-18T18:45:09.259Z,19.00
2023-01-18T18:47:35.851Z,19.00
2023-01-18T18:50:02.439Z,19.00
2023-01-18T18:52:29.048Z,19.00
2023-01-18T18:54:55.692Z,19.00
2023-01-18T18:57:22.269Z,19.00
2023-01-18T18:59:48.862Z,19.00
2023-01-18T19:02:16.429Z,19.00
2023-01-18T19:04:43.115Z,19.00
2023-01-18T19:07:09.754Z,19.00
2023-01-18T19:09:36.398Z,19.00
2023-01-18T19:12:02.994Z,19.00
2023-01-18T19:14:30.370Z,19.00
2023-01-18T19:16:56.960Z,19.00
2023-01-18T19:19:25.947Z,19.00
2023-01-18T19:21:53.614Z,19.00
2023-01-18T19:24:20.294Z,19.00
2023-01-18T19:26:46.880Z,19.00
2023-01-18T19:29:13.555Z,19.00
2023-01-18T19:31:40.227Z,19.00
2023-01-18T19:34:06.940Z,19.00
2023-01-18T19:36:34.012Z,19.00
2023-01-18T19:39:03.497Z,19.00
2023-01-18T19:41:32.145Z,19.00
2023-01-18T19:43:58.762Z,19.00
2023-01-18T19:46:25.459Z,19.00
2023-01-18T19:48:59.223Z,19.00
2023-01-18T19:51:25.922Z,19.00
2023-01-18T19:53:52.779Z,19.00
2023-01-18T19:56:19.387Z,18.90
2023-01-18T19:58:46.028Z,19.00
2023-01-18T20:01:30.178Z,18.90
2023-01-18T20:04:01.613Z,18.90
2023-01-18T20:06:28.199Z,18.90
2023-01-18T20:08:54.946Z,18.90
2023-01-18T20:11:21.523Z,18.90
2023-01-18T20:13:48.744Z,18.90
2023-01-18T20:16:15.452Z,18.90
2023-01-18T20:18:42.157Z,18.90
2023-01-18T20:21:14.015Z,18.90
2023-01-18T20:23:41.646Z,18.90
2023-01-18T20:26:08.326Z,18.90
2023-01-18T20:28:37.891Z,18.90
2023-01-18T20:31:05.829Z,18.90
2023-01-18T20:33:33.112Z,18.90
2023-01-18T20:36:01.626Z,18.90
2023-01-18T20:38:28.430Z,18.90
2023-01-18T20:40:55.151Z,18.90
2023-01-18T20:43:21.753Z,18.90
2023-01-18T20:45:48.353Z,18.90
2023-01-18T20:48:14.988Z,18.90
2023-01-18T20:50:41.601Z,18.90
2023-01-18T20:53:08.196Z,18.90
2023-01-18T20:55:36.241Z,18.90
2023-01-18T20:58:02.925Z,18.90
2023-01-18T21:00:31.059Z,18.90
2023-01-18T21:02:57.740Z,18.90
2023-01-18T21:05:25.324Z,18.90
2023-01-18T21:07:51.912Z,18.90
2023-01-18T21:10:18.577Z,18.90
2023-01-18T21:12:45.864Z,18.90
2023-01-18T21:15:13.266Z,18.90
2023-01-18T21:17:39.927Z,18.90
2023-01-18T21:20:07.052Z,18.90
2023-01-18T21:22:33.665Z,18.90
2023-01-18T21:25:00.287Z,18.90
2023-01-18T21:27:27.227Z,18.90
2023-01-18T21:29:54.205Z,18.90
2023-01-18T21:32:22.597Z,18.90
2023-01-18T21:34:49.202Z,18.90
2023-01-18T21:37:15.796Z,18.90
2023-01-18T21:39:42.423Z,18.90
2023-01-18T21:42:28.825Z,18.90
2023-01-18T21:45:14.168Z,18.90
2023-01-18T21:47:40.769Z,18.90
2023-01-18T21:50:26.455Z,18.90
2023-01-18T21:53:11.808Z,18.90
2023-01-18T21:55:38.687Z,18.90
2023-01-18T21:58:23.797Z,18.90
2023-01-18T22:00:50.505Z,18.90
2023-01-18T22:03:18.411Z,18.80
2023-01-18T22:05:45.052Z,18.90
2023-01-18T22:08:11.689Z,18.80
2023-01-18T22:10:38.318Z,18.90
2023-01-18T22:13:04.935Z,18.80
2023-01-18T22:15:31.522Z,18.80
2023-01-18T22:17:58.500Z,18.90
2023-01-18T22:20:25.267Z,18.90
2023-01-18T22:22:51.922Z,18.90
2023-01-18T22:25:18.521Z,18.80
2023-01-18T22:27:45.126Z,18.80
2023-01-18T22:30:12.369Z,18.90
2023-01-18T22:32:39.084Z,18.90
2023-01-18T22:35:05.952Z,18.80
2023-01-18T22:37:32.692Z,18.90
2023-01-18T22:39:59.280Z,18.90
2023-01-18T22:42:26.310Z,18.80
2023-01-18T22:44:52.922Z,18.90
2023-01-18T22:47:19.561Z,18.80
2023-01-18T22:49:46.279Z,18.80
2023-01-18T22:52:12.888Z,18.80
2023-01-18T22:54:39.500Z,18.80
2023-01-18T22:57:06.098Z,18.90
2023-01-18T22:59:32.687Z,18.90
2023-01-18T23:01:59.496Z,18.90
2023-01-18T23:04:27.303Z,18.80
2023-01-18T23:06:56.041Z,18.90
2023-01-18T23:09:25.097Z,18.80
2023-01-18T23:11:51.752Z,18.80
2023-01-18T23:14:36.926Z,18.80
2023-01-18T23:17:22.477Z,18.80
2023-01-18T23:19:49.063Z,18.80
2023-01-18T23:22:15.727Z,18.80
2023-01-18T23:24:42.341Z,18.80
2023-01-18T23:27:12.358Z,18.80
2023-01-18T23:29:39.242Z,18.80
2023-01-18T23:32:05.985Z,18.80
2023-01-18T23:34:32.577Z,18.80
2023-01-18T23:36:59.180Z,18.80
2023-01-18T23:39:44.147Z,18.80
2023-01-18T23:42:29.436Z,18.80
2023-01-18T23:45:14.860Z,18.80
2023-01-18T23:48:00.412Z,18.80
2023-01-18T23:50:46.038Z,18.80
2023-01-18T23:53:31.462Z,18.80
2023-01-18T23:55:58.356Z,18.80
2023-01-18T23:58:25.178Z,18.80
